sensor_id;sensor_type;location;lat;lon;timestamp;temperature;humidity
13699;DHT22;6921;53.642;9.956;2024-02-04T00:00:32;6.50;99.90
13699;DHT22;6921;53.642;9.956;2024-02-04T00:04:39;6.50;99.90
13699;DHT22;6921;53.642;9.956;2024-02-04T00:08:48;6.40;99.90
13699;DHT22;6921;53.642;9.956;2024-02-04T00:10:51;6.60;99.90
13699;DHT22;6921;53.642;9.956;2024-02-04T00:12:55;6.60;99.90
13699;DHT22;6921;53.642;9.956;2024-02-04T00:17:02;6.40;99.90
13699;DHT22;6921;53.642;9.956;2024-02-04T00:21:11;6.40;99.90
13699;DHT22;6921;53.642;9.956;2024-02-04T00:25:19;6.50;99.90
13699;DHT22;6921;53.642;9.956;2024-02-04T00:27:23;6.40;99.90
13699;DHT22;6921;53.642;9.956;2024-02-04T00:31:31;6.30;99.90
13699;DHT22;6921;53.642;9.956;2024-02-04T00:33:34;6.30;99.90
13699;DHT22;6921;53.642;9.956;2024-02-04T00:35:38;6.30;99.90
13699;DHT22;6921;53.642;9.956;2024-02-04T00:37:41;6.90;99.90
13699;DHT22;6921;53.642;9.956;2024-02-04T00:39:45;6.40;99.90
13699;DHT22;6921;53.642;9.956;2024-02-04T00:41:52;6.30;99.90
13699;DHT22;6921;53.642;9.956;2024-02-04T00:43:58;7.60;99.90
13699;DHT22;6921;53.642;9.956;2024-02-04T00:48:07;6.20;99.90
13699;DHT22;6921;53.642;9.956;2024-02-04T00:50:11;6.10;99.90
13699;DHT22;6921;53.642;9.956;2024-02-04T00:52:14;7.60;99.90
13699;DHT22;6921;53.642;9.956;2024-02-04T00:54:18;6.40;99.90
13699;DHT22;6921;53.642;9.956;2024-02-04T00:56:20;6.30;99.90
13699;DHT22;6921;53.642;9.956;2024-02-04T00:58:25;6.10;99.90
13699;DHT22;6921;53.642;9.956;2024-02-04T01:00:28;6.00;99.90
13699;DHT22;6921;53.642;9.956;2024-02-04T01:02:30;6.50;99.90
13699;DHT22;6921;53.642;9.956;2024-02-04T01:06:37;6.30;99.90
13699;DHT22;6921;53.642;9.956;2024-02-04T01:08:47;6.30;99.90
13699;DHT22;6921;53.642;9.956;2024-02-04T01:10:52;6.40;99.90
13699;DHT22;6921;53.642;9.956;2024-02-04T01:12:55;6.60;99.90
13699;DHT22;6921;53.642;9.956;2024-02-04T01:15:00;6.40;99.90
13699;DHT22;6921;53.642;9.956;2024-02-04T01:17:05;6.90;99.90
13699;DHT22;6921;53.642;9.956;2024-02-04T01:23:16;6.50;99.90
13699;DHT22;6921;53.642;9.956;2024-02-04T01:25:20;7.00;99.90
13699;DHT22;6921;53.642;9.956;2024-02-04T01:27:23;6.50;99.90
13699;DHT22;6921;53.642;9.956;2024-02-04T01:29:27;6.60;99.90
13699;DHT22;6921;53.642;9.956;2024-02-04T01:31:31;6.60;99.90
13699;DHT22;6921;53.642;9.956;2024-02-04T01:33:34;6.80;99.90
13699;DHT22;6921;53.642;9.956;2024-02-04T01:35:38;6.50;99.90
13699;DHT22;6921;53.642;9.956;2024-02-04T01:37:41;7.00;99.90
13699;DHT22;6921;53.642;9.956;2024-02-04T01:39:46;6.80;99.90
13699;DHT22;6921;53.642;9.956;2024-02-04T01:41:49;6.70;99.90
13699;DHT22;6921;53.642;9.956;2024-02-04T01:45:57;6.70;99.90
13699;DHT22;6921;53.642;9.956;2024-02-04T01:48:09;6.90;99.90
13699;DHT22;6921;53.642;9.956;2024-02-04T01:50:12;6.70;99.90
13699;DHT22;6921;53.642;9.956;2024-02-04T01:52:16;7.50;99.90
13699;DHT22;6921;53.642;9.956;2024-02-04T01:54:20;6.80;99.90
13699;DHT22;6921;53.642;9.956;2024-02-04T01:56:26;6.90;99.90
13699;DHT22;6921;53.642;9.956;2024-02-04T01:58:29;8.00;99.90
13699;DHT22;6921;53.642;9.956;2024-02-04T02:02:40;6.80;99.90
13699;DHT22;6921;53.642;9.956;2024-02-04T02:04:46;8.70;99.90
13699;DHT22;6921;53.642;9.956;2024-02-04T02:06:50;7.00;99.90
13699;DHT22;6921;53.642;9.956;2024-02-04T02:08:55;6.90;99.90
13699;DHT22;6921;53.642;9.956;2024-02-04T02:11:05;6.90;99.90
13699;DHT22;6921;53.642;9.956;2024-02-04T02:13:15;6.90;99.90
13699;DHT22;6921;53.642;9.956;2024-02-04T02:15:22;7.00;99.90
13699;DHT22;6921;53.642;9.956;2024-02-04T02:17:37;7.00;99.90
13699;DHT22;6921;53.642;9.956;2024-02-04T02:19:50;7.00;99.90
13699;DHT22;6921;53.642;9.956;2024-02-04T02:22:02;7.30;99.90
13699;DHT22;6921;53.642;9.956;2024-02-04T02:24:11;7.50;99.90
13699;DHT22;6921;53.642;9.956;2024-02-04T02:26:26;7.00;99.90
13699;DHT22;6921;53.642;9.956;2024-02-04T02:28:29;6.90;99.90
13699;DHT22;6921;53.642;9.956;2024-02-04T02:32:36;7.10;99.90
13699;DHT22;6921;53.642;9.956;2024-02-04T02:36:45;7.00;99.90
13699;DHT22;6921;53.642;9.956;2024-02-04T02:38:56;7.20;99.90
13699;DHT22;6921;53.642;9.956;2024-02-04T02:41:04;7.40;99.90
13699;DHT22;6921;53.642;9.956;2024-02-04T02:43:23;6.90;99.90
13699;DHT22;6921;53.642;9.956;2024-02-04T02:45:27;6.90;99.90
13699;DHT22;6921;53.642;9.956;2024-02-04T02:47:31;6.80;99.90
13699;DHT22;6921;53.642;9.956;2024-02-04T02:49:37;6.90;99.90
13699;DHT22;6921;53.642;9.956;2024-02-04T02:51:41;6.70;99.90
13699;DHT22;6921;53.642;9.956;2024-02-04T02:53:44;6.90;99.90
13699;DHT22;6921;53.642;9.956;2024-02-04T02:55:48;6.80;99.90
13699;DHT22;6921;53.642;9.956;2024-02-04T02:59:56;6.80;99.90
13699;DHT22;6921;53.642;9.956;2024-02-04T03:01:59;6.80;99.90
13699;DHT22;6921;53.642;9.956;2024-02-04T03:06:05;6.70;99.90
13699;DHT22;6921;53.642;9.956;2024-02-04T03:08:09;4.30;99.90
13699;DHT22;6921;53.642;9.956;2024-02-04T03:10:13;7.10;99.90
13699;DHT22;6921;53.642;9.956;2024-02-04T03:14:20;6.70;99.90
13699;DHT22;6921;53.642;9.956;2024-02-04T03:16:24;6.70;99.90
13699;DHT22;6921;53.642;9.956;2024-02-04T03:18:27;7.40;99.90
13699;DHT22;6921;53.642;9.956;2024-02-04T03:20:30;6.70;99.90
13699;DHT22;6921;53.642;9.956;2024-02-04T03:22:33;7.40;99.90
13699;DHT22;6921;53.642;9.956;2024-02-04T03:24:36;6.80;99.90
13699;DHT22;6921;53.642;9.956;2024-02-04T03:26:39;6.60;99.90
13699;DHT22;6921;53.642;9.956;2024-02-04T03:30:46;6.60;99.90
13699;DHT22;6921;53.642;9.956;2024-02-04T03:32:50;6.70;99.90
13699;DHT22;6921;53.642;9.956;2024-02-04T03:34:54;6.90;99.90
13699;DHT22;6921;53.642;9.956;2024-02-04T03:36:57;6.60;99.90
13699;DHT22;6921;53.642;9.956;2024-02-04T03:39:00;7.00;99.90
13699;DHT22;6921;53.642;9.956;2024-02-04T03:43:07;6.30;99.90
13699;DHT22;6921;53.642;9.956;2024-02-04T03:47:13;6.50;99.90
13699;DHT22;6921;53.642;9.956;2024-02-04T03:49:18;6.50;99.90
13699;DHT22;6921;53.642;9.956;2024-02-04T03:55:28;6.40;99.90
13699;DHT22;6921;53.642;9.956;2024-02-04T03:57:32;7.50;99.90
13699;DHT22;6921;53.642;9.956;2024-02-04T04:01:39;6.40;99.90
13699;DHT22;6921;53.642;9.956;2024-02-04T04:03:42;6.70;99.90
13699;DHT22;6921;53.642;9.956;2024-02-04T04:05:47;6.20;99.90
13699;DHT22;6921;53.642;9.956;2024-02-04T04:09:54;6.40;99.90
13699;DHT22;6921;53.642;9.956;2024-02-04T04:11:57;6.70;99.90
13699;DHT22;6921;53.642;9.956;2024-02-04T04:16:03;6.30;99.90
13699;DHT22;6921;53.642;9.956;2024-02-04T04:18:07;6.40;99.90
13699;DHT22;6921;53.642;9.956;2024-02-04T04:20:10;4.60;99.90
13699;DHT22;6921;53.642;9.956;2024-02-04T04:22:16;6.30;99.90
13699;DHT22;6921;53.642;9.956;2024-02-04T04:24:18;6.30;99.90
13699;DHT22;6921;53.642;9.956;2024-02-04T04:26:24;7.30;99.90
13699;DHT22;6921;53.642;9.956;2024-02-04T04:28:27;6.50;99.90
13699;DHT22;6921;53.642;9.956;2024-02-04T04:32:34;6.20;99.90
13699;DHT22;6921;53.642;9.956;2024-02-04T04:34:37;7.10;99.90
13699;DHT22;6921;53.642;9.956;2024-02-04T04:38:45;6.20;99.90
13699;DHT22;6921;53.642;9.956;2024-02-04T04:40:51;7.00;99.90
13699;DHT22;6921;53.642;9.956;2024-02-04T04:42:55;6.50;99.90
13699;DHT22;6921;53.642;9.956;2024-02-04T04:44:58;6.20;99.90
13699;DHT22;6921;53.642;9.956;2024-02-04T04:49:05;6.20;99.90
13699;DHT22;6921;53.642;9.956;2024-02-04T04:53:12;6.20;99.90
13699;DHT22;6921;53.642;9.956;2024-02-04T04:55:16;6.20;99.90
13699;DHT22;6921;53.642;9.956;2024-02-04T04:57:19;6.40;99.90
13699;DHT22;6921;53.642;9.956;2024-02-04T04:59:22;7.20;99.90
13699;DHT22;6921;53.642;9.956;2024-02-04T05:01:26;6.10;99.90
13699;DHT22;6921;53.642;9.956;2024-02-04T05:03:29;6.10;99.90
13699;DHT22;6921;53.642;9.956;2024-02-04T05:05:32;6.10;99.90
13699;DHT22;6921;53.642;9.956;2024-02-04T05:07:35;6.40;99.90
13699;DHT22;6921;53.642;9.956;2024-02-04T05:09:37;7.10;99.90
13699;DHT22;6921;53.642;9.956;2024-02-04T05:11:42;6.50;99.90
13699;DHT22;6921;53.642;9.956;2024-02-04T05:13:48;6.10;99.90
13699;DHT22;6921;53.642;9.956;2024-02-04T05:15:51;6.10;99.90
13699;DHT22;6921;53.642;9.956;2024-02-04T05:19:58;6.20;99.90
13699;DHT22;6921;53.642;9.956;2024-02-04T05:22:02;5.90;99.90
13699;DHT22;6921;53.642;9.956;2024-02-04T05:24:05;5.90;99.90
13699;DHT22;6921;53.642;9.956;2024-02-04T05:28:13;6.00;99.90
13699;DHT22;6921;53.642;9.956;2024-02-04T05:30:17;6.40;99.90
13699;DHT22;6921;53.642;9.956;2024-02-04T05:32:20;5.90;99.90
13699;DHT22;6921;53.642;9.956;2024-02-04T05:40:33;6.00;99.90
13699;DHT22;6921;53.642;9.956;2024-02-04T05:44:41;5.90;99.90
13699;DHT22;6921;53.642;9.956;2024-02-04T05:46:44;6.40;99.90
13699;DHT22;6921;53.642;9.956;2024-02-04T05:48:48;6.20;99.90
13699;DHT22;6921;53.642;9.956;2024-02-04T05:50:51;6.00;99.90
13699;DHT22;6921;53.642;9.956;2024-02-04T05:54:58;6.10;99.90
13699;DHT22;6921;53.642;9.956;2024-02-04T05:57:05;7.60;99.90
13699;DHT22;6921;53.642;9.956;2024-02-04T05:59:08;6.40;99.90
13699;DHT22;6921;53.642;9.956;2024-02-04T06:01:13;6.40;99.90
13699;DHT22;6921;53.642;9.956;2024-02-04T06:03:15;6.30;99.90
13699;DHT22;6921;53.642;9.956;2024-02-04T06:09:24;6.00;99.90
13699;DHT22;6921;53.642;9.956;2024-02-04T06:11:27;7.30;99.90
13699;DHT22;6921;53.642;9.956;2024-02-04T06:15:34;6.00;99.90
13699;DHT22;6921;53.642;9.956;2024-02-04T06:17:39;6.10;99.90
13699;DHT22;6921;53.642;9.956;2024-02-04T06:21:47;6.10;99.90
13699;DHT22;6921;53.642;9.956;2024-02-04T06:25:54;6.10;99.90
13699;DHT22;6921;53.642;9.956;2024-02-04T06:27:57;6.10;99.90
13699;DHT22;6921;53.642;9.956;2024-02-04T06:32:04;6.10;99.90
13699;DHT22;6921;53.642;9.956;2024-02-04T06:34:09;6.20;99.90
13699;DHT22;6921;53.642;9.956;2024-02-04T06:36:12;6.00;99.90
13699;DHT22;6921;53.642;9.956;2024-02-04T06:40:18;6.10;99.90
13699;DHT22;6921;53.642;9.956;2024-02-04T06:44:25;6.10;99.90
13699;DHT22;6921;53.642;9.956;2024-02-04T06:50:39;6.10;99.90
13699;DHT22;6921;53.642;9.956;2024-02-04T06:52:43;6.30;99.90
13699;DHT22;6921;53.642;9.956;2024-02-04T06:56:51;6.10;99.90
13699;DHT22;6921;53.642;9.956;2024-02-04T06:58:54;6.20;99.90
13699;DHT22;6921;53.642;9.956;2024-02-04T07:00:58;6.10;99.90
13699;DHT22;6921;53.642;9.956;2024-02-04T07:03:01;6.10;99.90
13699;DHT22;6921;53.642;9.956;2024-02-04T07:05:05;6.20;99.90
13699;DHT22;6921;53.642;9.956;2024-02-04T07:07:09;6.00;99.90
13699;DHT22;6921;53.642;9.956;2024-02-04T07:09:13;6.10;99.90
13699;DHT22;6921;53.642;9.956;2024-02-04T07:13:20;5.90;99.90
13699;DHT22;6921;53.642;9.956;2024-02-04T07:15:23;6.10;99.90
13699;DHT22;6921;53.642;9.956;2024-02-04T07:19:29;6.10;99.90
13699;DHT22;6921;53.642;9.956;2024-02-04T07:21:33;6.50;99.90
13699;DHT22;6921;53.642;9.956;2024-02-04T07:23:37;6.10;99.90
13699;DHT22;6921;53.642;9.956;2024-02-04T07:25:41;6.40;99.90
13699;DHT22;6921;53.642;9.956;2024-02-04T07:27:43;6.60;99.90
13699;DHT22;6921;53.642;9.956;2024-02-04T07:29:48;6.40;99.90
13699;DHT22;6921;53.642;9.956;2024-02-04T07:31:52;6.70;99.90
13699;DHT22;6921;53.642;9.956;2024-02-04T07:38:03;6.40;99.90
13699;DHT22;6921;53.642;9.956;2024-02-04T07:40:08;6.20;99.90
13699;DHT22;6921;53.642;9.956;2024-02-04T07:44:15;6.30;99.90
13699;DHT22;6921;53.642;9.956;2024-02-04T07:50:25;6.40;99.90
13699;DHT22;6921;53.642;9.956;2024-02-04T07:52:29;6.40;99.90
13699;DHT22;6921;53.642;9.956;2024-02-04T07:56:37;6.40;99.90
13699;DHT22;6921;53.642;9.956;2024-02-04T08:00:45;6.40;99.90
13699;DHT22;6921;53.642;9.956;2024-02-04T08:04:51;6.40;99.90
13699;DHT22;6921;53.642;9.956;2024-02-04T08:06:54;7.40;99.90
13699;DHT22;6921;53.642;9.956;2024-02-04T08:11:01;6.50;99.90
13699;DHT22;6921;53.642;9.956;2024-02-04T08:13:06;6.60;99.90
13699;DHT22;6921;53.642;9.956;2024-02-04T08:15:09;6.70;99.90
13699;DHT22;6921;53.642;9.956;2024-02-04T08:17:12;6.80;99.90
13699;DHT22;6921;53.642;9.956;2024-02-04T08:21:18;6.60;99.90
13699;DHT22;6921;53.642;9.956;2024-02-04T08:23:22;6.70;99.90
13699;DHT22;6921;53.642;9.956;2024-02-04T08:27:28;6.70;99.90
13699;DHT22;6921;53.642;9.956;2024-02-04T08:29:33;7.10;99.90
13699;DHT22;6921;53.642;9.956;2024-02-04T08:31:35;5.40;99.90
13699;DHT22;6921;53.642;9.956;2024-02-04T08:35:43;6.80;99.90
13699;DHT22;6921;53.642;9.956;2024-02-04T08:37:46;6.80;99.90
13699;DHT22;6921;53.642;9.956;2024-02-04T08:41:51;6.70;99.90
13699;DHT22;6921;53.642;9.956;2024-02-04T08:43:54;6.80;99.90
13699;DHT22;6921;53.642;9.956;2024-02-04T08:45:59;6.80;99.90
13699;DHT22;6921;53.642;9.956;2024-02-04T08:48:08;6.70;99.90
13699;DHT22;6921;53.642;9.956;2024-02-04T08:50:11;6.90;99.90
13699;DHT22;6921;53.642;9.956;2024-02-04T08:52:15;6.90;99.90
13699;DHT22;6921;53.642;9.956;2024-02-04T08:56:22;8.50;99.90
13699;DHT22;6921;53.642;9.956;2024-02-04T08:58:26;7.00;99.90
13699;DHT22;6921;53.642;9.956;2024-02-04T09:02:34;7.00;99.90
13699;DHT22;6921;53.642;9.956;2024-02-04T09:06:42;7.00;99.90
13699;DHT22;6921;53.642;9.956;2024-02-04T09:08:46;7.00;99.90
13699;DHT22;6921;53.642;9.956;2024-02-04T09:10:49;7.10;99.90
13699;DHT22;6921;53.642;9.956;2024-02-04T09:14:56;7.20;99.90
13699;DHT22;6921;53.642;9.956;2024-02-04T09:17:02;7.40;99.90
13699;DHT22;6921;53.642;9.956;2024-02-04T09:19:10;7.20;99.90
13699;DHT22;6921;53.642;9.956;2024-02-04T09:25:20;7.20;99.90
13699;DHT22;6921;53.642;9.956;2024-02-04T09:29:28;7.30;99.90
13699;DHT22;6921;53.642;9.956;2024-02-04T09:33:35;7.20;99.90
13699;DHT22;6921;53.642;9.956;2024-02-04T09:35:41;7.50;99.90
13699;DHT22;6921;53.642;9.956;2024-02-04T09:37:44;7.30;99.90
13699;DHT22;6921;53.642;9.956;2024-02-04T09:39:48;8.00;99.90
13699;DHT22;6921;53.642;9.956;2024-02-04T09:41:51;7.20;99.90
13699;DHT22;6921;53.642;9.956;2024-02-04T09:43:55;7.40;99.90
13699;DHT22;6921;53.642;9.956;2024-02-04T09:46:00;7.40;99.90
13699;DHT22;6921;53.642;9.956;2024-02-04T09:48:05;7.30;99.90
13699;DHT22;6921;53.642;9.956;2024-02-04T09:50:10;7.40;99.90
13699;DHT22;6921;53.642;9.956;2024-02-04T09:52:18;7.30;99.90
13699;DHT22;6921;53.642;9.956;2024-02-04T09:54:22;7.40;99.90
13699;DHT22;6921;53.642;9.956;2024-02-04T09:56:26;8.20;99.90
13699;DHT22;6921;53.642;9.956;2024-02-04T09:58:30;7.30;99.90
13699;DHT22;6921;53.642;9.956;2024-02-04T10:00:33;7.40;99.90
13699;DHT22;6921;53.642;9.956;2024-02-04T10:02:37;7.30;99.90
13699;DHT22;6921;53.642;9.956;2024-02-04T10:04:41;7.30;99.90
13699;DHT22;6921;53.642;9.956;2024-02-04T10:06:43;7.30;99.90
13699;DHT22;6921;53.642;9.956;2024-02-04T10:08:48;7.40;99.90
13699;DHT22;6921;53.642;9.956;2024-02-04T10:10:51;7.80;99.90
13699;DHT22;6921;53.642;9.956;2024-02-04T10:12:56;7.70;99.90
13699;DHT22;6921;53.642;9.956;2024-02-04T10:17:05;7.40;99.90
13699;DHT22;6921;53.642;9.956;2024-02-04T10:19:09;7.50;99.90
13699;DHT22;6921;53.642;9.956;2024-02-04T10:21:16;8.20;99.90
13699;DHT22;6921;53.642;9.956;2024-02-04T10:23:20;7.80;99.90
13699;DHT22;6921;53.642;9.956;2024-02-04T10:25:25;7.50;99.90
13699;DHT22;6921;53.642;9.956;2024-02-04T10:31:40;7.50;99.90
13699;DHT22;6921;53.642;9.956;2024-02-04T10:37:51;7.60;99.90
13699;DHT22;6921;53.642;9.956;2024-02-04T10:42:02;7.70;99.90
13699;DHT22;6921;53.642;9.956;2024-02-04T10:44:06;7.40;99.90
13699;DHT22;6921;53.642;9.956;2024-02-04T10:46:13;7.80;99.90
13699;DHT22;6921;53.642;9.956;2024-02-04T10:48:19;7.80;99.90
13699;DHT22;6921;53.642;9.956;2024-02-04T10:50:24;7.80;99.90
13699;DHT22;6921;53.642;9.956;2024-02-04T10:54:32;7.80;99.90
13699;DHT22;6921;53.642;9.956;2024-02-04T10:56:42;8.30;99.90
13699;DHT22;6921;53.642;9.956;2024-02-04T10:58:48;8.20;99.90
13699;DHT22;6921;53.642;9.956;2024-02-04T11:00:52;8.70;99.90
13699;DHT22;6921;53.642;9.956;2024-02-04T11:02:56;7.90;99.90
13699;DHT22;6921;53.642;9.956;2024-02-04T11:05:00;7.90;99.90
13699;DHT22;6921;53.642;9.956;2024-02-04T11:07:05;8.10;99.90
13699;DHT22;6921;53.642;9.956;2024-02-04T11:09:08;6.50;99.90
13699;DHT22;6921;53.642;9.956;2024-02-04T11:13:16;8.00;99.90
13699;DHT22;6921;53.642;9.956;2024-02-04T11:15:21;8.00;99.90
13699;DHT22;6921;53.642;9.956;2024-02-04T11:17:44;8.10;99.90
13699;DHT22;6921;53.642;9.956;2024-02-04T11:20:07;8.10;99.90
13699;DHT22;6921;53.642;9.956;2024-02-04T11:22:36;8.20;99.90
13699;DHT22;6921;53.642;9.956;2024-02-04T11:24:59;8.00;99.90
13699;DHT22;6921;53.642;9.956;2024-02-04T11:27:06;8.00;99.90
13699;DHT22;6921;53.642;9.956;2024-02-04T11:29:10;8.00;99.90
13699;DHT22;6921;53.642;9.956;2024-02-04T11:31:17;8.00;99.90
13699;DHT22;6921;53.642;9.956;2024-02-04T11:33:21;8.10;99.90
13699;DHT22;6921;53.642;9.956;2024-02-04T11:35:25;8.30;99.90
13699;DHT22;6921;53.642;9.956;2024-02-04T11:37:29;7.80;99.90
13699;DHT22;6921;53.642;9.956;2024-02-04T11:39:32;7.10;99.90
13699;DHT22;6921;53.642;9.956;2024-02-04T11:41:44;8.30;99.90
13699;DHT22;6921;53.642;9.956;2024-02-04T11:43:52;8.40;99.90
13699;DHT22;6921;53.642;9.956;2024-02-04T11:48:06;8.30;99.90
13699;DHT22;6921;53.642;9.956;2024-02-04T11:50:10;8.40;99.90
13699;DHT22;6921;53.642;9.956;2024-02-04T11:52:18;8.50;99.90
13699;DHT22;6921;53.642;9.956;2024-02-04T11:58:30;8.90;99.90
13699;DHT22;6921;53.642;9.956;2024-02-04T12:00:34;8.60;99.90
13699;DHT22;6921;53.642;9.956;2024-02-04T12:02:38;8.80;99.90
13699;DHT22;6921;53.642;9.956;2024-02-04T12:04:43;8.80;99.90
13699;DHT22;6921;53.642;9.956;2024-02-04T12:10:54;8.80;99.90
13699;DHT22;6921;53.642;9.956;2024-02-04T12:12:59;8.80;99.90
13699;DHT22;6921;53.642;9.956;2024-02-04T12:15:03;8.80;99.90
13699;DHT22;6921;53.642;9.956;2024-02-04T12:17:08;9.10;99.90
13699;DHT22;6921;53.642;9.956;2024-02-04T12:19:12;8.70;99.90
13699;DHT22;6921;53.642;9.956;2024-02-04T12:21:17;8.70;99.90
13699;DHT22;6921;53.642;9.956;2024-02-04T12:23:22;8.80;99.90
13699;DHT22;6921;53.642;9.956;2024-02-04T12:25:27;8.70;99.90
13699;DHT22;6921;53.642;9.956;2024-02-04T12:27:32;8.90;99.90
13699;DHT22;6921;53.642;9.956;2024-02-04T12:31:38;8.70;99.90
13699;DHT22;6921;53.642;9.956;2024-02-04T12:33:49;8.90;99.90
13699;DHT22;6921;53.642;9.956;2024-02-04T12:35:53;8.60;99.90
13699;DHT22;6921;53.642;9.956;2024-02-04T12:38:00;8.60;99.90
13699;DHT22;6921;53.642;9.956;2024-02-04T12:40:03;8.70;99.90
13699;DHT22;6921;53.642;9.956;2024-02-04T12:42:08;8.60;99.90
13699;DHT22;6921;53.642;9.956;2024-02-04T12:44:11;9.70;99.90
13699;DHT22;6921;53.642;9.956;2024-02-04T12:48:17;8.70;99.90
13699;DHT22;6921;53.642;9.956;2024-02-04T12:50:23;9.10;99.90
13699;DHT22;6921;53.642;9.956;2024-02-04T12:54:30;8.70;99.90
13699;DHT22;6921;53.642;9.956;2024-02-04T12:56:44;8.80;99.90
13699;DHT22;6921;53.642;9.956;2024-02-04T13:00:59;8.80;99.90
13699;DHT22;6921;53.642;9.956;2024-02-04T13:03:04;8.70;99.90
13699;DHT22;6921;53.642;9.956;2024-02-04T13:05:07;8.70;99.90
13699;DHT22;6921;53.642;9.956;2024-02-04T13:07:12;8.70;99.90
13699;DHT22;6921;53.642;9.956;2024-02-04T13:09:16;8.80;99.90
13699;DHT22;6921;53.642;9.956;2024-02-04T13:11:21;8.90;99.90
13699;DHT22;6921;53.642;9.956;2024-02-04T13:13:24;8.60;99.90
13699;DHT22;6921;53.642;9.956;2024-02-04T13:15:33;8.80;99.90
13699;DHT22;6921;53.642;9.956;2024-02-04T13:17:36;8.90;99.90
13699;DHT22;6921;53.642;9.956;2024-02-04T13:19:40;8.80;99.90
13699;DHT22;6921;53.642;9.956;2024-02-04T13:21:45;8.80;99.90
13699;DHT22;6921;53.642;9.956;2024-02-04T13:23:50;9.20;99.90
13699;DHT22;6921;53.642;9.956;2024-02-04T13:27:57;8.80;99.90
13699;DHT22;6921;53.642;9.956;2024-02-04T13:32:59;8.90;99.90
13699;DHT22;6921;53.642;9.956;2024-02-04T13:35:06;8.90;99.90
13699;DHT22;6921;53.642;9.956;2024-02-04T13:37:14;9.00;99.90
13699;DHT22;6921;53.642;9.956;2024-02-04T13:39:18;8.70;99.90
13699;DHT22;6921;53.642;9.956;2024-02-04T13:41:20;9.20;99.90
13699;DHT22;6921;53.642;9.956;2024-02-04T13:43:34;9.30;99.90
13699;DHT22;6921;53.642;9.956;2024-02-04T13:47:41;8.90;99.90
13699;DHT22;6921;53.642;9.956;2024-02-04T13:49:44;8.90;99.90
13699;DHT22;6921;53.642;9.956;2024-02-04T13:55:55;8.60;99.90
13699;DHT22;6921;53.642;9.956;2024-02-04T14:00:06;8.70;99.90
13699;DHT22;6921;53.642;9.956;2024-02-04T14:02:12;8.70;99.90
13699;DHT22;6921;53.642;9.956;2024-02-04T14:08:26;8.70;99.90
13699;DHT22;6921;53.642;9.956;2024-02-04T14:10:29;8.80;99.90
13699;DHT22;6921;53.642;9.956;2024-02-04T14:12:32;8.70;99.90
13699;DHT22;6921;53.642;9.956;2024-02-04T14:14:35;8.80;99.90
13699;DHT22;6921;53.642;9.956;2024-02-04T14:16:40;8.70;99.90
13699;DHT22;6921;53.642;9.956;2024-02-04T14:18:43;8.60;99.90
13699;DHT22;6921;53.642;9.956;2024-02-04T14:20:59;8.80;99.90
13699;DHT22;6921;53.642;9.956;2024-02-04T14:23:03;8.70;99.90
13699;DHT22;6921;53.642;9.956;2024-02-04T14:25:06;8.60;99.90
13699;DHT22;6921;53.642;9.956;2024-02-04T14:27:10;8.70;99.90
13699;DHT22;6921;53.642;9.956;2024-02-04T14:29:13;7.80;99.90
13699;DHT22;6921;53.642;9.956;2024-02-04T14:33:22;8.50;99.90
13699;DHT22;6921;53.642;9.956;2024-02-04T14:35:25;9.60;99.90
13699;DHT22;6921;53.642;9.956;2024-02-04T14:37:29;8.60;99.90
13699;DHT22;6921;53.642;9.956;2024-02-04T14:41:37;8.40;99.90
13699;DHT22;6921;53.642;9.956;2024-02-04T14:49:53;8.50;99.90
13699;DHT22;6921;53.642;9.956;2024-02-04T14:53:59;8.40;99.90
13699;DHT22;6921;53.642;9.956;2024-02-04T14:58:10;8.30;99.90
13699;DHT22;6921;53.642;9.956;2024-02-04T15:00:16;8.40;99.90
13699;DHT22;6921;53.642;9.956;2024-02-04T15:02:20;8.30;99.90
13699;DHT22;6921;53.642;9.956;2024-02-04T15:06:29;8.50;99.90
13699;DHT22;6921;53.642;9.956;2024-02-04T15:08:33;8.50;99.90
13699;DHT22;6921;53.642;9.956;2024-02-04T15:12:41;8.40;99.90
13699;DHT22;6921;53.642;9.956;2024-02-04T15:14:46;8.40;99.90
13699;DHT22;6921;53.642;9.956;2024-02-04T15:16:49;8.40;99.90
13699;DHT22;6921;53.642;9.956;2024-02-04T15:23:03;7.90;99.90
13699;DHT22;6921;53.642;9.956;2024-02-04T15:25:07;8.50;99.90
13699;DHT22;6921;53.642;9.956;2024-02-04T15:29:16;8.30;99.90
13699;DHT22;6921;53.642;9.956;2024-02-04T15:31:23;8.40;99.90
13699;DHT22;6921;53.642;9.956;2024-02-04T15:33:27;8.30;99.90
13699;DHT22;6921;53.642;9.956;2024-02-04T15:35:32;8.30;99.90
13699;DHT22;6921;53.642;9.956;2024-02-04T15:37:40;8.30;99.90
13699;DHT22;6921;53.642;9.956;2024-02-04T15:39:43;8.30;99.90
13699;DHT22;6921;53.642;9.956;2024-02-04T15:41:47;8.60;99.90
13699;DHT22;6921;53.642;9.956;2024-02-04T15:43:52;8.30;99.90
13699;DHT22;6921;53.642;9.956;2024-02-04T15:45:58;8.10;99.90
13699;DHT22;6921;53.642;9.956;2024-02-04T15:48:09;8.30;99.90
13699;DHT22;6921;53.642;9.956;2024-02-04T15:50:15;8.30;99.90
13699;DHT22;6921;53.642;9.956;2024-02-04T15:52:20;8.40;99.90
13699;DHT22;6921;53.642;9.956;2024-02-04T15:54:24;8.20;99.90
13699;DHT22;6921;53.642;9.956;2024-02-04T15:56:35;8.20;99.90
13699;DHT22;6921;53.642;9.956;2024-02-04T15:59:08;8.00;99.90
13699;DHT22;6921;53.642;9.956;2024-02-04T16:01:14;8.00;99.90
13699;DHT22;6921;53.642;9.956;2024-02-04T16:03:18;8.30;99.90
13699;DHT22;6921;53.642;9.956;2024-02-04T16:05:24;7.90;99.90
13699;DHT22;6921;53.642;9.956;2024-02-04T16:09:33;7.80;99.90
13699;DHT22;6921;53.642;9.956;2024-02-04T16:11:52;7.80;99.90
13699;DHT22;6921;53.642;9.956;2024-02-04T16:14:02;7.70;99.90
13699;DHT22;6921;53.642;9.956;2024-02-04T16:16:08;7.80;99.90
13699;DHT22;6921;53.642;9.956;2024-02-04T16:18:14;7.50;99.90
13699;DHT22;6921;53.642;9.956;2024-02-04T16:20:17;7.90;99.90
13699;DHT22;6921;53.642;9.956;2024-02-04T16:28:42;7.40;99.90
13699;DHT22;6921;53.642;9.956;2024-02-04T16:30:49;7.60;99.90
13699;DHT22;6921;53.642;9.956;2024-02-04T16:35:04;7.60;99.90
13699;DHT22;6921;53.642;9.956;2024-02-04T16:45:27;7.50;99.90
13699;DHT22;6921;53.642;9.956;2024-02-04T16:51:41;7.50;99.90
13699;DHT22;6921;53.642;9.956;2024-02-04T16:58:04;7.40;99.90
13699;DHT22;6921;53.642;9.956;2024-02-04T17:00:09;7.40;99.90
13699;DHT22;6921;53.642;9.956;2024-02-04T17:02:16;7.60;99.90
13699;DHT22;6921;53.642;9.956;2024-02-04T17:04:24;8.60;99.90
13699;DHT22;6921;53.642;9.956;2024-02-04T17:06:29;7.40;99.90
13699;DHT22;6921;53.642;9.956;2024-02-04T17:08:34;7.40;99.90
13699;DHT22;6921;53.642;9.956;2024-02-04T17:10:37;7.50;99.90
13699;DHT22;6921;53.642;9.956;2024-02-04T17:12:42;7.40;99.90
13699;DHT22;6921;53.642;9.956;2024-02-04T17:14:47;7.40;99.90
13699;DHT22;6921;53.642;9.956;2024-02-04T17:17:00;7.20;99.90
13699;DHT22;6921;53.642;9.956;2024-02-04T17:19:12;7.30;99.90
13699;DHT22;6921;53.642;9.956;2024-02-04T17:21:22;7.30;99.90
13699;DHT22;6921;53.642;9.956;2024-02-04T17:23:31;7.30;99.90
13699;DHT22;6921;53.642;9.956;2024-02-04T17:25:38;7.20;99.90
13699;DHT22;6921;53.642;9.956;2024-02-04T17:27:44;6.90;99.90
13699;DHT22;6921;53.642;9.956;2024-02-04T17:29:47;7.20;99.90
13699;DHT22;6921;53.642;9.956;2024-02-04T17:31:53;7.40;99.90
13699;DHT22;6921;53.642;9.956;2024-02-04T17:33:59;7.10;99.90
13699;DHT22;6921;53.642;9.956;2024-02-04T17:36:05;7.20;99.90
13699;DHT22;6921;53.642;9.956;2024-02-04T17:42:18;7.10;99.90
13699;DHT22;6921;53.642;9.956;2024-02-04T17:46:24;7.40;99.90
13699;DHT22;6921;53.642;9.956;2024-02-04T17:50:34;7.30;99.90
13699;DHT22;6921;53.642;9.956;2024-02-04T17:52:39;7.10;99.90